Terminal Aerodrome Forecast
Issued by NWS South Bend, IN

Home | Current Version | Previous Version | Graphics & Text | Print | Product List | Glossary On
Versions: 1 2 3 4 5 6 7 8 9 10 11 12 13 14 15
000
FTUS43 KIWX 171200 CCA
TAFSBN
TAF COR
KSBN 171231Z 1712/1812 VRB03KT P6SM SKC
      TEMPO 1712/1714 5SM BR
     FM171500 27007KT P6SM SKC
     FM180200 22003KT P6SM SCT060=

USA.gov is the U.S. government's official web portal to all federal, state and local government web resources and services.